createdAt,value
2018-09-06T00:00:14.116Z,20.76
2018-09-06T00:02:43.670Z,20.78
2018-09-06T00:05:13.312Z,20.77
2018-09-06T00:07:42.963Z,20.78
2018-09-06T00:10:12.545Z,20.85
2018-09-06T00:12:42.072Z,20.94
2018-09-06T00:15:11.640Z,20.90
2018-09-06T00:17:41.144Z,20.87
2018-09-06T00:20:10.737Z,20.85
2018-09-06T00:22:40.296Z,20.89
2018-09-06T00:25:09.964Z,20.84
2018-09-06T00:27:39.524Z,20.80
2018-09-06T00:30:09.090Z,20.82
2018-09-06T00:32:38.694Z,20.84
2018-09-06T00:35:08.236Z,20.77
2018-09-06T00:37:37.988Z,20.83
2018-09-06T00:40:08.544Z,20.81
2018-09-06T00:42:38.198Z,20.82
2018-09-06T00:45:07.836Z,20.86
2018-09-06T00:47:37.618Z,20.81
2018-09-06T00:50:12.463Z,20.81
2018-09-06T00:52:42.047Z,20.84
2018-09-06T00:55:11.583Z,20.84
2018-09-06T00:57:41.167Z,20.83
2018-09-06T01:00:10.743Z,20.75
2018-09-06T01:02:40.323Z,20.76
2018-09-06T01:05:09.923Z,20.71
2018-09-06T01:07:39.419Z,20.73
2018-09-06T01:10:09.275Z,20.77
2018-09-06T01:12:38.822Z,20.81
2018-09-06T01:15:08.451Z,20.77
2018-09-06T01:17:37.984Z,20.77
2018-09-06T01:20:07.662Z,20.80
2018-09-06T01:22:37.242Z,20.80
2018-09-06T01:25:06.874Z,20.75
2018-09-06T01:27:36.463Z,20.84
2018-09-06T01:30:06.268Z,20.85
2018-09-06T01:32:35.860Z,20.87
2018-09-06T01:35:05.423Z,20.75
2018-09-06T01:37:34.958Z,20.81
2018-09-06T01:40:04.552Z,20.85
2018-09-06T01:42:34.081Z,20.83
2018-09-06T01:45:03.595Z,20.80
2018-09-06T01:47:33.336Z,20.80
2018-09-06T01:50:02.835Z,20.78
2018-09-06T01:52:32.427Z,20.76
2018-09-06T01:55:01.968Z,20.73
2018-09-06T01:57:31.548Z,20.75
2018-09-06T02:00:01.063Z,20.73
2018-09-06T02:02:30.765Z,20.72
2018-09-06T02:05:00.261Z,20.71
2018-09-06T02:07:29.908Z,20.67
2018-09-06T02:09:59.479Z,20.77
2018-09-06T02:12:29.076Z,20.80
2018-09-06T02:14:58.588Z,20.76
2018-09-06T02:17:28.232Z,20.76
2018-09-06T02:19:57.776Z,20.81
2018-09-06T02:22:27.327Z,20.79
2018-09-06T02:24:56.907Z,20.75
2018-09-06T02:27:26.398Z,20.82
2018-09-06T02:29:55.946Z,20.89
2018-09-06T02:32:25.501Z,20.86
2018-09-06T02:34:55.112Z,20.84
2018-09-06T02:37:24.651Z,20.88
2018-09-06T02:39:54.254Z,20.92
2018-09-06T02:42:23.799Z,20.91
2018-09-06T02:44:53.353Z,20.98
2018-09-06T02:47:22.916Z,20.95
2018-09-06T02:49:57.427Z,21.03
2018-09-06T02:52:27.076Z,21.03
2018-09-06T02:54:56.564Z,20.99
2018-09-06T02:57:26.102Z,20.97
2018-09-06T02:59:55.755Z,20.92
2018-09-06T03:02:25.438Z,20.89
2018-09-06T03:04:54.987Z,20.88
2018-09-06T03:07:24.616Z,20.84
2018-09-06T03:09:54.229Z,20.21
2018-09-06T03:12:23.860Z,20.78
2018-09-06T03:14:53.362Z,20.77
2018-09-06T03:17:22.921Z,20.74
2018-09-06T03:19:52.516Z,20.78
2018-09-06T03:22:22.027Z,20.78
2018-09-06T03:24:51.555Z,20.59
2018-09-06T03:27:21.184Z,20.64
2018-09-06T03:29:50.720Z,20.67
2018-09-06T03:32:20.351Z,20.62
2018-09-06T03:34:49.949Z,20.57
2018-09-06T03:37:19.583Z,20.59
2018-09-06T03:39:49.137Z,20.52
2018-09-06T03:42:18.823Z,20.47
2018-09-06T03:44:48.444Z,20.45
2018-09-06T03:47:18.075Z,20.52
2018-09-06T03:49:47.569Z,20.42
2018-09-06T03:52:17.103Z,20.37
2018-09-06T03:54:46.647Z,20.44
2018-09-06T03:57:16.255Z,20.40
2018-09-06T03:59:45.812Z,20.38
2018-09-06T04:02:15.428Z,20.40
2018-09-06T04:04:45.048Z,20.40
2018-09-06T04:07:14.590Z,20.42
2018-09-06T04:09:44.183Z,20.52
2018-09-06T04:12:13.715Z,20.56
2018-09-06T04:14:43.368Z,20.55
2018-09-06T04:17:12.923Z,20.60
2018-09-06T04:19:42.562Z,20.67
2018-09-06T04:22:12.233Z,20.65
2018-09-06T04:24:41.839Z,20.77
2018-09-06T04:27:11.398Z,20.76
2018-09-06T04:29:40.963Z,20.81
2018-09-06T04:32:10.624Z,20.83
2018-09-06T04:34:40.122Z,20.94
2018-09-06T04:37:09.656Z,21.02
2018-09-06T04:39:39.160Z,21.10
2018-09-06T04:42:08.735Z,21.27
2018-09-06T04:44:38.223Z,21.31
2018-09-06T04:47:07.754Z,21.35
2018-09-06T04:49:37.288Z,21.46
2018-09-06T04:52:06.864Z,21.63
2018-09-06T04:54:36.395Z,21.76
2018-09-06T04:57:05.987Z,21.85
2018-09-06T04:59:35.563Z,21.95
2018-09-06T05:02:05.136Z,22.04
2018-09-06T05:04:34.756Z,22.00
2018-09-06T05:07:04.264Z,22.13
2018-09-06T05:09:33.908Z,22.40
2018-09-06T05:12:03.411Z,22.43
2018-09-06T05:14:33.000Z,22.70
2018-09-06T05:17:02.573Z,22.78
2018-09-06T05:19:32.067Z,22.91
2018-09-06T05:22:01.650Z,22.96
2018-09-06T05:24:31.366Z,23.13
2018-09-06T05:27:00.936Z,23.21
2018-09-06T05:29:30.453Z,23.24
2018-09-06T05:32:00.116Z,23.36
2018-09-06T05:34:29.634Z,23.39
2018-09-06T05:36:59.183Z,23.50
2018-09-06T05:39:28.676Z,23.67
2018-09-06T05:41:58.268Z,23.76
2018-09-06T05:44:27.853Z,23.76
2018-09-06T05:46:57.568Z,23.87
2018-09-06T05:49:27.171Z,23.91
2018-09-06T05:51:56.791Z,24.02
2018-09-06T05:54:26.322Z,23.94
2018-09-06T05:56:55.872Z,24.18
2018-09-06T05:59:25.579Z,24.35
2018-09-06T06:01:55.084Z,24.44
2018-09-06T06:04:24.680Z,24.55
2018-09-06T06:06:54.195Z,24.57
2018-09-06T06:09:23.728Z,24.61
2018-09-06T06:11:53.345Z,24.74
2018-09-06T06:14:22.931Z,24.79
2018-09-06T06:16:52.480Z,24.82
2018-09-06T06:19:22.018Z,24.83
2018-09-06T06:21:51.515Z,24.94
2018-09-06T06:24:21.107Z,25.15
2018-09-06T06:26:50.613Z,25.30
2018-09-06T06:29:20.157Z,25.15
2018-09-06T06:31:49.721Z,25.16
2018-09-06T06:34:19.323Z,25.22
2018-09-06T06:36:48.815Z,25.58
2018-09-06T06:39:18.520Z,25.47
2018-09-06T06:41:48.059Z,25.63
2018-09-06T06:44:17.644Z,25.85
2018-09-06T06:46:47.164Z,25.86
2018-09-06T06:49:17.041Z,25.73
2018-09-06T06:51:46.584Z,25.70
2018-09-06T06:54:16.262Z,25.85
2018-09-06T06:56:45.888Z,25.89
2018-09-06T06:59:15.448Z,26.02
2018-09-06T07:01:45.023Z,26.12
2018-09-06T07:04:14.737Z,26.12
2018-09-06T07:06:44.288Z,26.05
2018-09-06T07:09:13.808Z,26.22
2018-09-06T07:11:43.384Z,26.19
2018-09-06T07:14:12.961Z,26.26
2018-09-06T07:16:42.532Z,26.41
2018-09-06T07:19:12.131Z,26.53
2018-09-06T07:21:41.699Z,26.40
2018-09-06T07:24:11.232Z,26.30
2018-09-06T07:26:40.824Z,26.51
2018-09-06T07:29:10.363Z,26.36
2018-09-06T07:31:39.912Z,26.42
2018-09-06T07:34:09.476Z,26.42
2018-09-06T07:36:39.057Z,26.49
2018-09-06T07:39:09.828Z,26.53
2018-09-06T07:41:39.380Z,26.47
2018-09-06T07:44:08.896Z,26.48
2018-09-06T07:46:38.585Z,26.62
2018-09-06T07:49:08.139Z,26.59
2018-09-06T07:51:37.731Z,26.31
2018-09-06T07:54:07.370Z,26.51
2018-09-06T07:56:36.899Z,26.53
2018-09-06T07:59:06.637Z,26.59
2018-09-06T08:01:36.185Z,26.60
2018-09-06T08:04:05.811Z,26.54
2018-09-06T08:06:35.439Z,26.62
2018-09-06T08:09:07.092Z,26.68
2018-09-06T08:11:36.743Z,26.85
2018-09-06T08:14:06.351Z,26.84
2018-09-06T08:16:36.351Z,26.96
2018-09-06T08:19:06.133Z,27.07
2018-09-06T08:21:35.720Z,27.21
2018-09-06T08:24:05.341Z,27.37
2018-09-06T08:26:34.895Z,27.43
2018-09-06T08:29:04.431Z,27.57
2018-09-06T08:31:34.066Z,27.81
2018-09-06T08:34:03.671Z,28.00
2018-09-06T08:36:33.237Z,28.00
2018-09-06T08:39:02.908Z,28.07
2018-09-06T08:41:32.403Z,28.31
2018-09-06T08:44:01.946Z,28.33
2018-09-06T08:46:31.507Z,28.47
2018-09-06T08:49:01.199Z,28.40
2018-09-06T08:51:30.876Z,28.21
2018-09-06T08:54:00.398Z,28.42
2018-09-06T08:56:29.980Z,28.54
2018-09-06T08:58:59.560Z,28.71
2018-09-06T09:01:34.203Z,28.71
2018-09-06T09:04:03.717Z,28.65
2018-09-06T09:06:33.255Z,28.54
2018-09-06T09:09:02.917Z,28.47
2018-09-06T09:11:32.576Z,28.71
2018-09-06T09:14:02.212Z,28.68
2018-09-06T09:16:31.797Z,28.97
2018-09-06T09:19:01.452Z,29.04
2018-09-06T09:21:31.088Z,28.88
2018-09-06T09:24:00.772Z,28.89
2018-09-06T09:26:30.391Z,28.92
2018-09-06T09:28:59.952Z,28.68
2018-09-06T09:31:29.569Z,28.70
2018-09-06T09:33:59.334Z,28.63
2018-09-06T09:36:29.016Z,28.78
2018-09-06T09:38:58.607Z,28.91
2018-09-06T09:41:28.159Z,29.05
2018-09-06T09:43:57.717Z,29.02
2018-09-06T09:51:24.664Z,29.22
2018-09-06T09:53:54.347Z,29.31
2018-09-06T09:56:23.859Z,29.49
2018-09-06T09:58:53.395Z,29.47
2018-09-06T10:01:23.035Z,29.14
2018-09-06T10:03:57.656Z,29.16
2018-09-06T10:06:32.351Z,29.19
2018-09-06T10:09:06.856Z,29.12
2018-09-06T10:11:36.480Z,28.94
2018-09-06T10:14:06.023Z,28.51
2018-09-06T10:16:35.547Z,28.36
2018-09-06T10:19:05.139Z,28.07
2018-09-06T10:21:34.675Z,27.96
2018-09-06T10:24:04.417Z,28.01
2018-09-06T10:26:34.093Z,27.99
2018-09-06T10:29:03.660Z,27.83
2018-09-06T10:31:33.764Z,27.77
2018-09-06T10:34:03.327Z,27.74
2018-09-06T10:36:33.256Z,27.66
2018-09-06T10:39:02.948Z,27.00
2018-09-06T10:41:32.563Z,27.58
2018-09-06T10:44:02.174Z,27.58
2018-09-06T10:46:31.816Z,27.81
2018-09-06T10:49:01.444Z,27.90
2018-09-06T10:51:31.043Z,28.11
2018-09-06T10:54:00.686Z,28.24
2018-09-06T10:56:30.463Z,28.34
2018-09-06T10:59:00.051Z,28.57
2018-09-06T11:01:29.757Z,28.65
2018-09-06T11:03:59.453Z,28.55
2018-09-06T11:06:29.162Z,28.50
2018-09-06T11:08:58.835Z,28.30
2018-09-06T11:11:28.415Z,28.43
2018-09-06T11:13:57.915Z,28.33
2018-09-06T11:16:27.650Z,28.37
2018-09-06T11:18:57.204Z,28.53
2018-09-06T11:21:26.820Z,28.59
2018-09-06T11:23:56.278Z,28.63
2018-09-06T11:26:25.882Z,28.68
2018-09-06T11:28:55.469Z,28.77
2018-09-06T11:31:25.070Z,28.83
2018-09-06T11:33:54.583Z,28.86
2018-09-06T11:36:24.147Z,28.81
2018-09-06T11:38:53.761Z,28.88
2018-09-06T11:41:23.325Z,28.87
2018-09-06T11:43:52.936Z,28.80
2018-09-06T11:46:22.601Z,28.74
2018-09-06T11:48:52.293Z,28.82
2018-09-06T11:51:21.897Z,28.95
2018-09-06T11:53:51.471Z,28.99
2018-09-06T11:56:21.052Z,29.08
2018-09-06T11:58:50.619Z,29.14
2018-09-06T12:01:20.396Z,29.14
2018-09-06T12:03:50.267Z,29.27
2018-09-06T12:06:19.949Z,29.33
2018-09-06T12:08:49.553Z,29.45
2018-09-06T12:11:19.107Z,29.40
2018-09-06T12:13:48.713Z,29.44
2018-09-06T12:16:18.283Z,29.43
2018-09-06T12:18:47.815Z,29.42
2018-09-06T12:21:17.419Z,29.30
2018-09-06T12:23:46.933Z,29.38
2018-09-06T12:26:16.472Z,29.38
2018-09-06T12:28:46.001Z,29.58
2018-09-06T12:31:15.564Z,29.53
2018-09-06T12:33:45.159Z,29.51
2018-09-06T12:36:14.856Z,29.61
2018-09-06T12:38:44.451Z,29.71
2018-09-06T12:41:14.111Z,29.70
2018-09-06T12:43:44.120Z,29.77
2018-09-06T12:46:13.760Z,29.79
2018-09-06T12:48:43.529Z,29.84
2018-09-06T12:51:13.312Z,29.85
2018-09-06T12:53:42.871Z,30.01
2018-09-06T12:56:12.524Z,30.06
2018-09-06T12:58:42.173Z,30.04
2018-09-06T13:01:12.890Z,30.17
2018-09-06T13:03:42.828Z,29.95
2018-09-06T13:06:12.413Z,29.79
2018-09-06T13:08:42.025Z,29.74
2018-09-06T13:11:11.640Z,29.60
2018-09-06T13:13:41.386Z,29.52
2018-09-06T13:16:10.898Z,29.55
2018-09-06T13:18:40.514Z,29.53
2018-09-06T13:21:10.077Z,29.45
2018-09-06T13:23:39.636Z,29.36
2018-09-06T13:26:09.209Z,29.12
2018-09-06T13:28:38.902Z,29.16
2018-09-06T13:31:08.535Z,29.18
2018-09-06T13:33:38.083Z,29.21
2018-09-06T13:36:07.596Z,29.23
2018-09-06T13:38:37.107Z,29.20
2018-09-06T13:41:07.592Z,29.20
2018-09-06T13:43:37.158Z,29.19
2018-09-06T13:46:06.798Z,29.14
2018-09-06T13:48:36.381Z,29.14
2018-09-06T13:51:06.207Z,29.11
2018-09-06T13:53:35.711Z,29.36
2018-09-06T13:56:05.335Z,29.35
2018-09-06T13:58:34.844Z,29.45
2018-09-06T14:01:04.423Z,29.42
2018-09-06T14:03:33.992Z,29.53
2018-09-06T14:06:03.638Z,29.51
2018-09-06T14:08:33.183Z,29.42
2018-09-06T14:11:02.719Z,29.52
2018-09-06T14:13:32.268Z,29.50
2018-09-06T14:16:01.867Z,29.46
2018-09-06T14:18:31.499Z,29.38
2018-09-06T14:21:01.159Z,29.43
2018-09-06T14:23:30.688Z,29.50
2018-09-06T14:26:00.193Z,29.45
2018-09-06T14:28:29.752Z,29.46
2018-09-06T14:30:59.308Z,29.46
2018-09-06T14:33:28.918Z,29.38
2018-09-06T14:35:58.491Z,29.36
2018-09-06T14:38:28.047Z,29.46
2018-09-06T14:40:57.552Z,29.43
2018-09-06T14:43:27.137Z,29.52
2018-09-06T14:45:56.744Z,29.66
2018-09-06T14:48:26.284Z,29.72
2018-09-06T14:50:55.877Z,29.76
2018-09-06T14:53:25.354Z,29.92
2018-09-06T14:55:54.888Z,29.97
2018-09-06T14:58:24.399Z,30.03
2018-09-06T15:00:53.944Z,29.94
2018-09-06T15:03:23.435Z,29.98
2018-09-06T15:05:52.966Z,29.91
2018-09-06T15:08:22.500Z,29.84
2018-09-06T15:10:52.048Z,29.78
2018-09-06T15:13:21.641Z,29.77
2018-09-06T15:15:51.204Z,29.81
2018-09-06T15:18:20.745Z,29.80
2018-09-06T15:20:50.296Z,29.76
2018-09-06T15:23:19.869Z,29.67
2018-09-06T15:25:49.416Z,29.64
2018-09-06T15:28:18.954Z,29.49
2018-09-06T15:30:48.576Z,29.48
2018-09-06T15:33:18.091Z,29.44
2018-09-06T15:35:47.617Z,29.36
2018-09-06T15:38:17.120Z,29.35
2018-09-06T15:40:46.695Z,29.34
2018-09-06T15:43:16.231Z,29.35
2018-09-06T15:45:45.732Z,29.34
2018-09-06T15:48:15.315Z,29.38
2018-09-06T15:50:44.824Z,29.30
2018-09-06T15:53:14.360Z,28.88
2018-09-06T15:55:43.979Z,29.30
2018-09-06T15:58:13.484Z,29.24
2018-09-06T16:00:43.079Z,29.21
2018-09-06T16:03:12.640Z,29.13
2018-09-06T16:05:42.239Z,28.98
2018-09-06T16:08:11.735Z,28.83
2018-09-06T16:10:41.280Z,28.70
2018-09-06T16:13:10.778Z,28.66
2018-09-06T16:15:40.312Z,28.60
2018-09-06T16:18:09.931Z,28.58
2018-09-06T16:20:39.502Z,28.39
2018-09-06T16:23:09.144Z,28.26
2018-09-06T16:25:38.666Z,28.23
2018-09-06T16:28:08.261Z,28.18
2018-09-06T16:30:37.784Z,28.01
2018-09-06T16:33:07.355Z,27.89
2018-09-06T16:35:36.897Z,27.87
2018-09-06T16:38:06.503Z,27.88
2018-09-06T16:40:36.064Z,27.67
2018-09-06T16:43:05.828Z,27.54
2018-09-06T16:45:35.412Z,27.56
2018-09-06T16:48:04.988Z,27.51
2018-09-06T16:50:34.487Z,27.43
2018-09-06T16:53:04.084Z,27.34
2018-09-06T16:55:33.739Z,27.21
2018-09-06T16:58:03.361Z,26.96
2018-09-06T17:00:32.924Z,26.93
2018-09-06T17:03:02.477Z,26.84
2018-09-06T17:05:32.072Z,26.83
2018-09-06T17:08:01.599Z,26.75
2018-09-06T17:10:31.112Z,26.64
2018-09-06T17:13:00.720Z,26.54
2018-09-06T17:15:30.327Z,26.49
2018-09-06T17:17:59.982Z,26.43
2018-09-06T17:20:29.651Z,26.36
2018-09-06T17:22:59.231Z,26.23
2018-09-06T17:25:28.771Z,26.16
2018-09-06T17:27:58.308Z,26.09
2018-09-06T17:30:27.798Z,26.02
2018-09-06T17:32:57.339Z,25.94
2018-09-06T17:35:26.893Z,25.88
2018-09-06T17:37:56.484Z,25.84
2018-09-06T17:40:26.072Z,25.70
2018-09-06T17:42:55.560Z,25.65
2018-09-06T17:45:25.196Z,25.59
2018-09-06T17:47:54.810Z,25.46
2018-09-06T17:50:24.399Z,25.42
2018-09-06T17:52:54.091Z,25.35
2018-09-06T17:55:23.802Z,25.33
2018-09-06T17:57:53.328Z,25.18
2018-09-06T18:00:23.031Z,25.10
2018-09-06T18:02:52.599Z,25.11
2018-09-06T18:05:22.184Z,25.17
2018-09-06T18:07:51.855Z,25.17
2018-09-06T18:10:21.420Z,25.07
2018-09-06T18:12:51.044Z,25.06
2018-09-06T18:15:20.702Z,25.03
2018-09-06T18:17:50.512Z,25.02
2018-09-06T18:20:19.971Z,24.86
2018-09-06T18:22:49.531Z,24.85
2018-09-06T18:25:19.307Z,24.78
2018-09-06T18:27:48.955Z,24.76
2018-09-06T18:30:18.672Z,24.77
2018-09-06T18:32:48.263Z,24.75
2018-09-06T18:35:17.831Z,24.64
2018-09-06T18:37:47.328Z,24.57
2018-09-06T18:40:16.856Z,24.58
2018-09-06T18:42:46.551Z,24.60
2018-09-06T18:45:16.217Z,24.60
2018-09-06T18:47:45.936Z,24.53
2018-09-06T18:50:15.688Z,24.55
2018-09-06T18:52:45.332Z,24.51
2018-09-06T18:55:14.874Z,24.47
2018-09-06T18:57:44.440Z,24.47
2018-09-06T19:00:14.341Z,24.46
2018-09-06T19:02:43.948Z,24.41
2018-09-06T19:05:13.483Z,24.36
2018-09-06T19:07:43.147Z,24.34
2018-09-06T19:10:12.698Z,24.35
2018-09-06T19:12:42.248Z,24.34
2018-09-06T19:15:11.812Z,24.33
2018-09-06T19:17:41.399Z,24.31
2018-09-06T19:20:11.005Z,24.27
2018-09-06T19:22:40.625Z,24.27
2018-09-06T19:25:10.215Z,24.18
2018-09-06T19:27:39.721Z,24.25
2018-09-06T19:30:09.376Z,24.19
2018-09-06T19:32:38.992Z,24.19
2018-09-06T19:35:08.520Z,24.25
2018-09-06T19:37:38.057Z,24.20
2018-09-06T19:40:07.636Z,24.11
2018-09-06T19:42:37.166Z,24.15
2018-09-06T19:45:07.034Z,24.15
2018-09-06T19:47:36.567Z,24.07
2018-09-06T19:50:06.256Z,24.09
2018-09-06T19:52:35.880Z,24.04
2018-09-06T19:55:05.552Z,24.06
2018-09-06T19:57:35.445Z,24.05
2018-09-06T20:00:05.896Z,24.06
2018-09-06T20:02:35.536Z,24.05
2018-09-06T20:05:05.095Z,23.97
2018-09-06T20:07:34.629Z,23.85
2018-09-06T20:10:04.320Z,23.90
2018-09-06T20:12:33.912Z,23.86
2018-09-06T20:15:03.457Z,23.83
2018-09-06T20:17:32.955Z,23.84
2018-09-06T20:20:02.546Z,23.79
2018-09-06T20:22:32.039Z,23.79
2018-09-06T20:25:01.634Z,23.87
2018-09-06T20:27:31.221Z,23.82
2018-09-06T20:30:00.800Z,23.76
2018-09-06T20:32:30.364Z,23.62
2018-09-06T20:34:59.959Z,23.66
2018-09-06T20:37:29.469Z,23.62
2018-09-06T20:39:59.101Z,23.61
2018-09-06T20:42:28.595Z,23.62
2018-09-06T20:44:58.141Z,23.67
2018-09-06T20:47:27.635Z,23.69
2018-09-06T20:49:57.244Z,23.57
2018-09-06T20:52:26.820Z,23.48
2018-09-06T20:54:56.425Z,23.47
2018-09-06T20:57:25.960Z,23.32
2018-09-06T20:59:55.695Z,23.29
2018-09-06T21:02:25.772Z,23.21
2018-09-06T21:04:55.347Z,23.16
2018-09-06T21:07:24.960Z,23.12
2018-09-06T21:09:54.527Z,23.15
2018-09-06T21:12:24.055Z,23.13
2018-09-06T21:14:53.595Z,23.18
2018-09-06T21:17:23.127Z,23.01
2018-09-06T21:19:52.831Z,23.04
2018-09-06T21:22:22.383Z,23.05
2018-09-06T21:24:52.056Z,23.06
2018-09-06T21:27:21.613Z,23.04
2018-09-06T21:29:51.274Z,23.02
2018-09-06T21:32:20.791Z,23.01
2018-09-06T21:34:50.480Z,23.04
2018-09-06T21:37:20.018Z,23.02
2018-09-06T21:39:49.560Z,22.93
2018-09-06T21:42:19.102Z,22.31
2018-09-06T21:44:48.664Z,22.90
2018-09-06T21:47:18.251Z,22.88
2018-09-06T21:49:48.048Z,22.89
2018-09-06T21:52:17.659Z,22.83
2018-09-06T21:54:47.161Z,22.80
2018-09-06T21:57:16.757Z,22.83
2018-09-06T21:59:46.347Z,22.82
2018-09-06T22:02:20.995Z,22.81
2018-09-06T22:04:50.529Z,22.75
2018-09-06T22:07:20.031Z,22.71
2018-09-06T22:09:50.083Z,22.76
2018-09-06T22:12:20.351Z,22.72
2018-09-06T22:14:51.256Z,22.67
2018-09-06T22:17:20.865Z,22.60
2018-09-06T22:19:50.663Z,22.56
2018-09-06T22:22:20.253Z,22.37
2018-09-06T22:24:49.811Z,22.37
2018-09-06T22:27:19.640Z,22.23
2018-09-06T22:29:49.221Z,22.25
2018-09-06T22:32:18.803Z,22.19
2018-09-06T22:34:48.295Z,22.12
2018-09-06T22:37:17.870Z,22.19
2018-09-06T22:39:47.406Z,22.14
2018-09-06T22:42:16.943Z,22.15
2018-09-06T22:44:46.531Z,22.12
2018-09-06T22:47:16.091Z,22.11
2018-09-06T22:49:45.654Z,22.15
2018-09-06T22:52:15.211Z,22.10
2018-09-06T22:54:45.047Z,22.04
2018-09-06T22:57:14.576Z,22.01
2018-09-06T22:59:44.170Z,21.97
2018-09-06T23:02:13.664Z,21.96
2018-09-06T23:04:43.268Z,21.28
2018-09-06T23:07:12.863Z,21.88
2018-09-06T23:09:42.415Z,21.93
2018-09-06T23:12:11.971Z,21.97
2018-09-06T23:14:41.519Z,21.84
2018-09-06T23:17:11.039Z,22.00
2018-09-06T23:19:40.590Z,21.99
2018-09-06T23:22:10.136Z,22.02
2018-09-06T23:24:39.688Z,22.08
2018-09-06T23:27:09.191Z,22.17
2018-09-06T23:29:38.736Z,22.15
2018-09-06T23:32:08.265Z,22.25
2018-09-06T23:34:37.787Z,22.31
2018-09-06T23:37:07.327Z,22.32
2018-09-06T23:39:36.927Z,22.34
2018-09-06T23:42:06.504Z,22.45
2018-09-06T23:44:36.056Z,21.86
2018-09-06T23:47:05.616Z,22.46
2018-09-06T23:49:35.137Z,22.48
2018-09-06T23:52:04.702Z,22.51
2018-09-06T23:54:34.208Z,22.51
2018-09-06T23:57:03.742Z,22.50
2018-09-06T23:59:33.236Z,22.49
